Flight Track Log - Related Links

Times and Time Zones

All times are in EDT time to prevent confusion due to time zone crossing. See the N1944E flight status page for this flight to view local times or setup timezone preferences in your user account.

Time Position Orientation Groundspeed Altitude Reporting Facility
EDT Latitude Longitude Course Direction KTS MPH feet Rate Location/Type
Fri 08:39:27 PM 45.7250 -108.5989 187° South 142 163 6,600  Level Salt Lake Center
Fri 08:40:29 PM 45.6864 -108.6172 198° South 135 155 7,800 1,024 Climbing Salt Lake Center
Fri 08:41:30 PM 45.6506 -108.6364 201° Southwest 140 161 8,700 976 Climbing Salt Lake Center
Fri 08:42:32 PM 45.6150 -108.6444 189° South 132 152 9,800 1,016 Climbing Salt Lake Center
Fri 08:43:34 PM 45.5739 -108.6544 190° South 142 163 10,800 968 Climbing Salt Lake Center
Fri 08:44:36 PM 45.5383 -108.6750 202° Southwest 138 159 11,800 634 Climbing Salt Lake Center
Fri 08:45:37 PM 45.4919 -108.6914 194° South 164 189 12,100 146 Climbing Salt Lake Center
Fri 08:46:39 PM 45.4422 -108.6992 186° South 180 207 12,100  Level Salt Lake Center
Fri 08:47:41 PM 45.3883 -108.7131 190° South 183 211 12,100 -48 Level Salt Lake Center
Fri 08:48:43 PM 45.3417 -108.7383 201° Southwest 184 212 12,000 -49 Descending Salt Lake Center
Fri 08:49:44 PM 45.2911 -108.7664 201° Southwest 181 208 12,000 -49 Level Salt Lake Center
Fri 08:50:46 PM 45.2406 -108.7881 197° South 190 219 11,900 -97 Descending Salt Lake Center
Fri 08:51:48 PM 45.1864 -108.8092 195° South 190 219 11,800 -48 Descending Salt Lake Center
Fri 08:52:50 PM 45.1369 -108.8308 197° South 189 217 11,800 49 Level Salt Lake Center
Fri 08:53:51 PM 45.0853 -108.8503 195° South 182 209 11,900 98 Climbing Salt Lake Center
Fri 08:54:53 PM 45.0378 -108.8658 193° South 178 205 12,000 48 Climbing Salt Lake Center
Fri 08:55:55 PM 44.9875 -108.8808 192° South 180 207 12,000 -48 Level Salt Lake Center
Fri 08:56:57 PM 44.9356 -108.8892 186° South 184 212 11,900 -49 Descending Salt Lake Center
Fri 08:57:58 PM 44.8886 -108.8964 186° South 180 207 11,900 -244 Level Salt Lake Center
Fri 08:59:00 PM 44.8417 -108.9114 193° South 179 206 11,400 -484 Descending Salt Lake Center

Login

Don't have an account? Register now (free) for customized features, flight alerts, and more!